Time;durP1;ratioP1;P1;durP2;ratioP2;P2;SDS_P1;SDS_P2;PMS_P1;PMS_P2;Temp;Humidity;BMP_temperature;BMP_pressure;BME280_temperature;BME280_humidity;BME280_pressure;Samples;Min_cycle;Max_cycle;Signal;HPM_P1;HPM_P2
2023/09/27 00:00:13;;;;;;;26.02;20.25;;;;;;;16.99;85.68;101236.42;1680322;85;25349;-52
2023/09/27 00:02:43;;;;;;;26.57;20.00;;;;;;;16.94;85.83;101231.14;1658182;85;25663;-55
2023/09/27 00:05:14;;;;;;;28.03;20.50;;;;;;;16.90;85.91;101231.58;1680511;85;25579;-54
2023/09/27 00:07:44;;;;;;;27.85;20.32;;;;;;;16.85;85.55;101230.39;1680576;85;25555;-52
2023/09/27 00:10:11;;;;;;;27.42;20.70;;;;;;;16.80;85.76;101227.24;1680512;85;28080;-53
2023/09/27 00:12:40;;;;;;;23.50;20.08;;;;;;;16.76;85.93;101223.58;1680240;85;25446;-52
2023/09/27 00:15:11;;;;;;;28.98;20.23;;;;;;;16.73;85.96;101225.02;1680510;85;25363;-54
2023/09/27 00:17:41;;;;;;;25.68;20.20;;;;;;;16.68;85.58;101225.20;1680428;85;25614;-54
2023/09/27 00:20:18;;;;;;;25.00;21.05;;;;;;;16.64;85.50;101224.84;1680539;85;25379;-54
2023/09/27 00:22:46;;;;;;;24.12;19.73;;;;;;;16.60;85.56;101224.13;1680511;84;27255;-53
2023/09/27 00:25:14;;;;;;;;;;;;;;;16.58;85.89;101225.56;1682899;85;25526;-54
2023/09/27 00:27:42;;;;;;;24.12;19.15;;;;;;;16.54;86.02;101218.59;1688236;85;25357;-51
2023/09/27 00:30:14;;;;;;;24.70;19.52;;;;;;;16.48;85.75;101220.45;1688209;84;25585;-51
2023/09/27 00:32:46;;;;;;;25.57;19.30;;;;;;;16.42;85.93;101219.27;1688166;84;25477;-55
2023/09/27 00:35:19;;;;;;;24.63;19.30;;;;;;;16.39;85.80;101217.19;1688144;84;27211;-52
2023/09/27 00:37:49;;;;;;;22.15;19.05;;;;;;;16.34;85.74;101212.48;1688127;85;25549;-54
2023/09/27 00:40:22;;;;;;;21.80;19.23;;;;;;;16.30;85.84;101215.63;1688164;85;25580;-52
2023/09/27 00:42:50;;;;;;;23.60;19.23;;;;;;;16.26;86.01;101214.12;1688142;85;25611;-54
2023/09/27 00:45:19;;;;;;;26.12;20.02;;;;;;;16.21;85.77;101206.89;1683316;85;25389;-54
2023/09/27 00:47:49;;;;;;;;;;;;;;;16.19;85.83;101220.61;1685644;85;29326;-52
2023/09/27 00:50:19;;;;;;;24.00;20.00;;;;;;;16.13;86.23;101210.44;1683096;85;25451;-54
2023/09/27 00:52:49;;;;;;;28.20;20.30;;;;;;;16.08;86.33;101209.24;1683121;85;25549;-51
2023/09/27 00:55:20;;;;;;;25.68;19.10;;;;;;;16.05;86.59;101210.67;1683105;85;25632;-54
2023/09/27 00:57:53;;;;;;;24.02;19.23;;;;;;;16.04;86.59;101210.45;1683171;85;25690;-51
2023/09/27 01:00:23;;;;;;;26.45;20.82;;;;;;;16.00;86.50;101209.48;1661212;85;27227;-51
2023/09/27 01:02:53;;;;;;;27.00;20.02;;;;;;;15.97;86.96;101208.79;1683104;85;25566;-55
2023/09/27 01:05:20;;;;;;;25.52;21.15;;;;;;;15.96;86.97;101209.11;1688358;85;25490;-52
2023/09/27 01:07:49;;;;;;;22.58;19.75;;;;;;;15.93;87.10;101201.56;1683120;85;25644;-55
2023/09/27 01:10:17;;;;;;;25.90;19.27;;;;;;;15.90;87.03;101196.17;1683400;85;25475;-53
2023/09/27 01:12:46;;;;;;;26.35;20.05;;;;;;;15.88;87.01;101201.16;1688466;85;27239;-54
2023/09/27 01:15:15;;;;;;;25.43;20.20;;;;;;;15.86;87.47;101197.39;1683056;85;25549;-56
2023/09/27 01:18:01;;;;;;;24.90;19.40;;;;;;;15.85;87.66;101197.70;1683351;85;25497;-53
2023/09/27 01:20:32;;;;;;;26.07;19.75;;;;;;;15.84;87.93;101202.94;1688189;85;25621;-56
2023/09/27 01:23:05;;;;;;;24.75;20.32;;;;;;;15.83;87.73;101202.69;1683194;85;25357;-52
2023/09/27 01:25:37;;;;;;;27.27;18.85;;;;;;;15.81;87.55;101202.22;1683175;85;27197;-53
2023/09/27 01:28:09;;;;;;;26.35;19.70;;;;;;;15.78;87.64;101198.77;1688274;85;25528;-53
2023/09/27 01:30:39;;;;;;;26.15;19.15;;;;;;;15.76;87.40;101196.92;1683191;85;25507;-55
2023/09/27 01:33:11;;;;;;;24.77;19.98;;;;;;;15.73;87.34;101203.78;1683231;85;26169;-52
2023/09/27 01:35:43;;;;;;;29.98;20.02;;;;;;;15.69;87.22;101199.53;1688399;85;25121;-55
2023/09/27 01:38:14;;;;;;;24.67;19.23;;;;;;;15.66;87.42;101198.84;1683165;85;27375;-53
2023/09/27 01:40:44;;;;;;;27.25;19.35;;;;;;;15.64;87.32;101201.62;1682989;85;25516;-52
2023/09/27 01:43:13;;;;;;;21.95;18.98;;;;;;;15.61;87.26;101194.91;1681548;85;25530;-53
2023/09/27 01:45:42;;;;;;;26.00;19.32;;;;;;;15.58;87.18;101190.63;1680427;85;25619;-52
2023/09/27 01:48:09;;;;;;;23.47;20.57;;;;;;;15.54;87.14;101185.59;1680514;85;32409;-51
2023/09/27 01:50:37;;;;;;;22.13;18.95;;;;;;;15.51;87.35;101184.32;1680337;85;27234;-54
2023/09/27 01:53:05;;;;;;;23.20;19.75;;;;;;;15.47;87.42;101189.58;1680419;85;25301;-54
2023/09/27 01:55:34;;;;;;;25.85;21.55;;;;;;;15.47;87.40;101192.88;1680428;85;25363;-51
2023/09/27 01:58:05;;;;;;;26.77;19.85;;;;;;;15.44;87.88;101186.70;1680480;85;25635;-55
2023/09/27 02:00:32;;;;;;;29.02;20.97;;;;;;;15.42;87.74;101184.29;1680459;85;25406;-52
2023/09/27 02:03:04;;;;;;;28.02;20.32;;;;;;;15.39;87.84;101174.05;1680617;85;27827;-53
2023/09/27 02:05:32;;;;;;;25.65;20.48;;;;;;;15.38;88.17;101172.44;1680356;85;25761;-55
2023/09/27 02:08:01;;;;;;;24.35;21.00;;;;;;;15.37;88.46;101175.48;1680410;85;25542;-53
2023/09/27 02:10:30;;;;;;;28.05;19.98;;;;;;;15.38;88.57;101177.09;1658223;85;25654;-52
2023/09/27 02:12:58;;;;;;;26.07;20.05;;;;;;;15.38;89.12;101173.80;1680530;85;25325;-52
2023/09/27 02:15:27;;;;;;;24.60;19.80;;;;;;;15.39;89.53;101172.69;1658377;85;27292;-53
2023/09/27 02:17:55;;;;;;;30.65;21.60;;;;;;;15.41;89.58;101175.06;1680289;85;25324;-53
2023/09/27 02:20:24;;;;;;;26.82;21.30;;;;;;;15.40;89.57;101175.64;1680475;85;25319;-52
2023/09/27 02:22:55;;;;;;;26.62;21.80;;;;;;;15.41;89.73;101177.80;1680475;85;25677;-54
2023/09/27 02:25:22;;;;;;;28.62;19.67;;;;;;;15.42;89.81;101178.05;1662047;85;33119;-55
2023/09/27 02:27:51;;;;;;;26.02;20.88;;;;;;;15.40;89.72;101170.19;1680465;85;27208;-55
2023/09/27 02:30:18;;;;;;;24.47;19.95;;;;;;;15.40;89.88;101172.91;1680325;85;25531;-52
2023/09/27 02:32:47;;;;;;;27.20;22.27;;;;;;;15.40;89.90;101174.84;1659051;85;25344;-54
2023/09/27 02:35:19;;;;;;;24.85;20.00;;;;;;;15.39;90.20;101166.41;1680367;85;26431;-53
2023/09/27 02:37:49;;;;;;;25.57;19.80;;;;;;;15.40;90.17;101165.30;1680412;85;25480;-53
2023/09/27 02:40:18;;;;;;;29.27;20.23;;;;;;;15.38;89.91;101166.98;1680562;85;27301;-52
2023/09/27 02:42:48;;;;;;;28.27;20.90;;;;;;;15.38;90.18;101167.55;1685877;84;25470;-52
2023/09/27 02:45:15;;;;;;;;;;;;;;;15.37;90.26;101164.58;1685392;85;25556;-53
2023/09/27 02:47:46;;;;;;;26.05;20.32;;;;;;;15.36;90.74;101169.23;1690464;84;25672;-54
2023/09/27 02:50:17;;;;;;;26.87;20.27;;;;;;;15.35;90.72;101169.55;1682897;84;25375;-54
2023/09/27 02:52:44;;;;;;;24.00;20.12;;;;;;;15.34;90.43;101163.84;1683001;85;29559;-52
2023/09/27 02:55:14;;;;;;;30.15;22.00;;;;;;;15.32;90.42;101162.80;1660066;84;25748;-52
2023/09/27 02:57:42;;;;;;;24.50;19.82;;;;;;;15.31;90.80;101159.85;1683039;85;25526;-55
2023/09/27 03:00:14;;;;;;;21.62;18.70;;;;;;;15.30;90.67;101162.33;1690914;84;30487;-56
2023/09/27 03:02:41;;;;;;;25.45;19.62;;;;;;;15.30;90.76;101161.75;1683120;85;25549;-56
2023/09/27 03:05:11;;;;;;;26.40;21.33;;;;;;;15.29;90.78;101160.73;1684277;83;29422;-52
2023/09/27 03:07:39;;;;;;;25.20;20.37;;;;;;;15.30;91.04;101161.75;1690625;84;25537;-54
2023/09/27 03:10:10;;;;;;;27.50;19.30;;;;;;;15.30;91.06;101159.03;1682921;85;25476;-52
2023/09/27 03:12:40;;;;;;;22.62;17.95;;;;;;;15.30;90.82;101163.69;1682964;84;25621;-55
2023/09/27 03:15:10;;;;;;;22.85;19.90;;;;;;;15.29;90.60;101165.63;1660829;84;25504;-52
2023/09/27 03:17:38;;;;;;;26.68;19.55;;;;;;;15.28;90.49;101168.66;1682986;85;27303;-52
2023/09/27 03:20:16;;;;;;;29.12;19.62;;;;;;;15.28;90.63;101165.94;1690685;84;25597;-52
2023/09/27 03:22:43;;;;;;;24.55;19.52;;;;;;;15.26;90.42;101163.53;1683105;85;25546;-52
2023/09/27 03:25:12;;;;;;;22.37;17.75;;;;;;;15.24;90.39;101165.77;1682997;85;26598;-52
2023/09/27 03:27:39;;;;;;;23.98;18.55;;;;;;;15.24;90.53;101160.33;1690603;84;25463;-52
2023/09/27 03:30:10;;;;;;;27.80;20.20;;;;;;;15.22;90.33;101163.11;1682888;85;27207;-52
2023/09/27 03:32:39;;;;;;;25.20;21.12;;;;;;;15.21;90.62;101166.98;1682884;85;25534;-54
2023/09/27 03:35:09;;;;;;;28.90;21.35;;;;;;;15.20;90.76;101159.91;1690701;84;25410;-52
2023/09/27 03:37:39;;;;;;;27.25;21.15;;;;;;;15.20;91.11;101161.27;1682909;85;27793;-52
2023/09/27 03:40:13;;;;;;;28.00;21.07;;;;;;;15.20;91.14;101162.06;1690640;84;25383;-52
2023/09/27 03:42:44;;;;;;;23.55;18.42;;;;;;;15.20;91.22;101160.70;1661519;85;27229;-52
2023/09/27 03:45:14;;;;;;;26.68;19.95;;;;;;;15.21;91.17;101166.41;1714781;83;25580;-51
2023/09/27 03:47:44;;;;;;;30.27;20.48;;;;;;;15.19;91.33;101160.48;1682467;85;25290;-54
2023/09/27 03:50:14;;;;;;;29.02;21.85;;;;;;;15.19;91.41;101170.02;1714844;83;25636;-52
2023/09/27 03:52:44;;;;;;;27.50;21.15;;;;;;;15.19;91.66;101171.38;1682473;85;25311;-52
2023/09/27 03:55:12;;;;;;;;;;;;;;;15.18;91.54;101167.04;1717384;83;27206;-52
2023/09/27 03:57:42;;;;;;;26.70;20.85;;;;;;;15.16;91.49;101165.20;1714920;83;25537;-51
2023/09/27 04:00:17;;;;;;;30.85;21.80;;;;;;;15.15;91.82;101169.60;1660930;85;25353;-52
2023/09/27 04:02:47;;;;;;;29.85;21.95;;;;;;;15.13;91.65;101167.98;1714928;83;25552;-54
2023/09/27 04:05:18;;;;;;;26.30;20.88;;;;;;;15.13;92.00;101167.19;1714936;83;25584;-55
2023/09/27 04:07:46;;;;;;;26.52;20.45;;;;;;;15.12;91.89;101172.42;1714863;83;27216;-52
2023/09/27 04:10:17;;;;;;;22.25;19.48;;;;;;;15.10;91.67;101170.01;1714840;83;30079;-51
2023/09/27 04:12:44;;;;;;;31.60;20.70;;;;;;;15.08;91.43;101173.59;1692274;83;25410;-53
2023/09/27 04:15:12;;;;;;;23.52;20.25;;;;;;;15.07;91.53;101167.12;1682393;85;25735;-55
2023/09/27 04:17:41;;;;;;;26.65;18.85;;;;;;;15.05;91.32;101163.35;1714939;83;25499;-52
2023/09/27 04:20:21;;;;;;;24.85;19.37;;;;;;;15.04;91.35;101173.20;1714745;83;27215;-55
2023/09/27 04:22:49;;;;;;;26.33;20.52;;;;;;;15.02;91.22;101172.16;1681178;85;25481;-51
2023/09/27 04:25:19;;;;;;;31.33;21.37;;;;;;;15.00;91.19;101178.48;1692394;83;25406;-51
2023/09/27 04:27:49;;;;;;;27.02;20.00;;;;;;;14.98;91.27;101182.06;1714738;83;25633;-52
2023/09/27 04:30:19;;;;;;;23.05;20.30;;;;;;;14.97;91.31;101173.66;1714773;83;25470;-52
2023/09/27 04:32:53;;;;;;;25.02;20.02;;;;;;;14.94;91.08;101174.30;1682445;85;27059;-53
2023/09/27 04:35:22;;;;;;;25.30;20.72;;;;;;;14.92;91.07;101179.26;1714848;83;25550;-53
2023/09/27 04:37:52;;;;;;;24.77;20.02;;;;;;;14.92;91.03;101181.98;1715019;83;32046;-54
2023/09/27 04:40:21;;;;;;;22.93;19.82;;;;;;;14.88;90.92;101183.18;1714856;83;25558;-53
2023/09/27 04:42:48;;;;;;;29.63;21.25;;;;;;;14.86;91.09;101178.58;1674147;85;25448;-52
2023/09/27 04:45:18;;;;;;;26.82;21.57;;;;;;;14.86;91.27;101182.67;1676134;85;28137;-52
2023/09/27 04:47:45;;;;;;;23.85;19.75;;;;;;;14.85;91.47;101178.36;1675900;85;25515;-51
2023/09/27 04:50:12;;;;;;;24.45;20.57;;;;;;;14.84;91.41;101174.59;1676005;85;25534;-52
2023/09/27 04:52:41;;;;;;;25.35;19.90;;;;;;;14.84;91.27;101175.95;1636092;86;25714;-54
2023/09/27 04:55:17;;;;;;;28.83;20.80;;;;;;;14.82;91.31;101176.26;1676141;85;25292;-55
2023/09/27 04:57:41;;;;;;;24.52;20.20;;;;;;;14.81;91.09;101176.00;1675334;85;26901;-52
2023/09/27 05:00:19;;;;;;;31.50;20.52;;;;;;;14.81;91.26;101177.94;1656959;86;27192;-52
2023/09/27 05:02:46;;;;;;;28.15;21.60;;;;;;;14.82;91.51;101180.34;1657094;86;25364;-52
2023/09/27 05:05:16;;;;;;;27.07;20.62;;;;;;;14.80;91.30;101185.31;1686263;85;25573;-53
2023/09/27 05:07:44;;;;;;;25.08;19.62;;;;;;;14.84;91.72;101188.20;1686170;85;25592;-52
2023/09/27 05:10:12;;;;;;;31.05;23.15;;;;;;;14.85;92.06;101182.45;1658280;85;27281;-52
2023/09/27 05:12:40;;;;;;;23.38;19.67;;;;;;;14.87;92.08;101182.13;1686215;85;25490;-54
2023/09/27 05:15:10;;;;;;;28.62;21.15;;;;;;;14.91;92.41;101184.45;1685471;85;25578;-56
2023/09/27 05:17:37;;;;;;;29.35;22.70;;;;;;;14.93;92.28;101189.84;1685842;85;26377;-54
2023/09/27 05:20:10;;;;;;;25.05;20.25;;;;;;;14.98;92.53;101193.53;1686036;85;25492;-58
2023/09/27 05:22:40;;;;;;;28.80;20.17;;;;;;;15.02;92.55;101193.16;1686147;85;27229;-53
2023/09/27 05:25:10;;;;;;;27.70;21.80;;;;;;;15.04;92.57;101188.98;1658292;85;25385;-53
2023/09/27 05:27:38;;;;;;;27.52;20.35;;;;;;;15.08;92.51;101198.68;1686123;85;25408;-54
2023/09/27 05:30:11;;;;;;;32.15;21.80;;;;;;;15.12;92.85;101196.94;1686124;85;25658;-57
2023/09/27 05:32:42;;;;;;;27.02;19.95;;;;;;;15.17;93.04;101196.79;1686136;85;25376;-55
2023/09/27 05:35:10;;;;;;;28.77;21.12;;;;;;;15.23;93.05;101199.59;1686144;85;27175;-54
2023/09/27 05:37:37;;;;;;;29.27;22.05;;;;;;;15.28;93.40;101194.55;1685929;85;25396;-54
2023/09/27 05:40:10;;;;;;;30.72;21.70;;;;;;;15.36;93.55;101200.58;1686084;85;25360;-55
2023/09/27 05:42:40;;;;;;;24.82;20.85;;;;;;;15.42;93.58;101206.67;1686217;83;26238;-56
2023/09/27 05:45:11;;;;;;;25.72;21.23;;;;;;;15.47;93.36;101203.22;1688115;85;25316;-56
2023/09/27 05:47:41;;;;;;;30.35;22.20;;;;;;;15.54;93.66;101202.74;1688071;85;26965;-54
2023/09/27 05:50:12;;;;;;;31.35;21.77;;;;;;;15.61;93.76;101207.17;1687894;84;25546;-53
2023/09/27 05:52:46;;;;;;;28.30;21.95;;;;;;;15.69;93.69;101206.35;1688115;85;25341;-56
2023/09/27 05:55:11;;;;;;;30.70;21.73;;;;;;;15.75;93.48;101212.50;1687450;85;25622;-55
2023/09/27 05:57:40;;;;;;;32.58;22.58;;;;;;;15.80;93.35;101216.42;1657630;85;25512;-54
2023/09/27 06:00:37;;;;;;;28.87;21.33;;;;;;;15.86;93.35;101217.05;1688097;85;27216;-55
2023/09/27 06:02:47;;;;;;;29.82;22.02;;;;;;;15.94;93.54;101214.89;1683508;85;25466;-54
2023/09/27 06:05:16;;;;;;;25.92;21.05;;;;;;;16.02;93.68;101212.71;1687700;85;25533;-54
2023/09/27 06:07:43;;;;;;;30.48;22.52;;;;;;;16.15;94.29;101221.03;1687997;85;25776;-53
2023/09/27 06:10:10;;;;;;;29.52;22.70;;;;;;;16.24;93.54;101212.25;1688072;84;25565;-56
2023/09/27 06:12:38;;;;;;;27.07;21.42;;;;;;;16.35;93.87;101210.78;1688038;84;27281;-56
2023/09/27 06:15:12;;;;;;;30.40;22.10;;;;;;;16.49;93.52;101215.25;1688192;85;27867;-56
2023/09/27 06:17:42;;;;;;;30.10;21.45;;;;;;;16.63;94.28;101217.19;1688094;85;25395;-54
2023/09/27 06:20:19;;;;;;;32.05;21.10;;;;;;;16.81;94.25;101224.19;1688005;85;25637;-55
2023/09/27 06:22:45;;;;;;;28.32;22.60;;;;;;;16.97;94.29;101221.75;1686728;85;25531;-53
2023/09/27 06:25:17;;;;;;;29.90;20.43;;;;;;;17.10;93.58;101224.56;1688151;85;27214;-56
2023/09/27 06:27:47;;;;;;;25.05;21.02;;;;;;;17.24;92.07;101217.48;1688074;85;25396;-52
2023/09/27 06:30:15;;;;;;;27.02;20.32;;;;;;;17.38;93.01;101222.12;1688191;85;25339;-54
2023/09/27 06:32:44;;;;;;;29.12;21.10;;;;;;;17.57;91.77;101226.33;1688250;85;25618;-54
2023/09/27 06:35:14;;;;;;;28.10;20.52;;;;;;;17.68;91.73;101226.97;1688203;84;25332;-54
2023/09/27 06:37:48;;;;;;;26.42;19.30;;;;;;;17.86;91.29;101225.44;1688167;85;27056;-55
2023/09/27 06:40:16;;;;;;;23.45;20.12;;;;;;;18.03;90.17;101232.72;1687002;85;25549;-54
2023/09/27 06:42:47;;;;;;;26.93;19.92;;;;;;;18.19;90.12;101229.59;1688120;84;25455;-56
2023/09/27 06:45:17;;;;;;;22.45;19.12;;;;;;;18.34;89.21;101227.33;1680515;85;25634;-56
2023/09/27 06:47:46;;;;;;;25.02;18.80;;;;;;;18.53;89.20;101228.20;1680678;85;33448;-55
2023/09/27 06:50:19;;;;;;;26.75;19.05;;;;;;;18.77;88.50;101230.94;1680587;85;29390;-57
2023/09/27 06:52:49;;;;;;;22.87;18.37;;;;;;;18.92;87.11;101228.71;1680482;85;25491;-57
2023/09/27 06:55:16;;;;;;;26.75;18.25;;;;;;;19.12;87.05;101232.44;1680516;85;25456;-56
2023/09/27 06:57:52;;;;;;;26.07;18.12;;;;;;;19.27;86.19;101235.06;1679708;85;25638;-56
2023/09/27 07:00:29;;;;;;;23.07;17.15;;;;;;;19.40;85.05;101239.39;1680538;85;25330;-57
2023/09/27 07:02:52;;;;;;;22.52;16.17;;;;;;;19.58;84.45;101237.16;1677513;85;27305;-56
2023/09/27 07:05:22;;;;;;;25.48;17.40;;;;;;;19.76;84.12;101237.13;1680460;85;25518;-56
2023/09/27 07:07:53;;;;;;;24.50;15.93;;;;;;;19.96;82.41;101238.67;1680521;85;25320;-57
2023/09/27 07:10:23;;;;;;;22.07;16.60;;;;;;;20.11;81.68;101242.62;1680480;85;25641;-58
2023/09/27 07:12:52;;;;;;;20.82;16.00;;;;;;;20.23;80.20;101237.64;1680548;85;25525;-58
2023/09/27 07:15:20;;;;;;;23.05;16.65;;;;;;;20.31;79.94;101232.53;1680586;85;29338;-58
2023/09/27 07:17:51;;;;;;;26.82;16.60;;;;;;;20.42;78.28;101237.73;1662391;85;25357;-58
2023/09/27 07:20:27;;;;;;;21.62;15.18;;;;;;;20.50;77.93;101234.03;1680863;85;25556;-56
2023/09/27 07:22:56;;;;;;;21.45;15.48;;;;;;;20.65;76.75;101242.65;1680578;85;26154;-57
2023/09/27 07:25:28;;;;;;;21.62;15.60;;;;;;;20.70;76.48;101241.00;1680546;85;25505;-55
2023/09/27 07:27:55;;;;;;;19.60;14.35;;;;;;;20.83;76.19;101245.84;1680516;85;27186;-56
2023/09/27 07:30:24;;;;;;;19.55;14.53;;;;;;;20.96;74.96;101243.22;1680553;85;25547;-56
2023/09/27 07:32:55;;;;;;;19.05;14.47;;;;;;;21.19;76.47;101246.69;1680733;85;25548;-55
2023/09/27 07:35:28;;;;;;;19.32;14.45;;;;;;;21.47;76.42;101253.44;1680460;85;25617;-57
2023/09/27 07:37:54;;;;;;;42.13;38.53;;;;;;;21.89;76.08;101251.34;1679815;84;25552;-56
2023/09/27 07:40:23;;;;;;;76.37;70.55;;;;;;;22.20;73.95;101251.75;1680605;85;27768;-56
2023/09/27 07:42:52;;;;;;;78.95;73.07;;;;;;;22.40;72.33;101253.70;1680436;85;25511;-54
2023/09/27 07:45:21;;;;;;;28.10;25.27;;;;;;;22.63;72.05;101248.98;1678838;85;25525;-54
2023/09/27 07:47:52;;;;;;;81.00;75.12;;;;;;;22.98;70.59;101254.84;1678507;85;25558;-55
2023/09/27 07:50:30;;;;;;;75.45;70.25;;;;;;;23.28;70.26;101250.01;1678513;85;25390;-58
2023/09/27 07:53:03;;;;;;;75.60;70.12;;;;;;;23.38;68.77;101250.73;1678623;85;29607;-57
2023/09/27 07:55:33;;;;;;;80.30;75.05;;;;;;;23.59;68.92;101253.57;1678414;85;25495;-58
2023/09/27 07:58:03;;;;;;;74.47;69.37;;;;;;;23.94;67.12;101255.19;1678558;85;25549;-55
2023/09/27 08:00:33;;;;;;;54.60;50.67;;;;;;;24.05;66.81;101249.20;1678470;85;25732;-55
2023/09/27 08:03:00;;;;;;;;;;;;;;;24.44;67.07;101254.34;1680977;85;25301;-57
2023/09/27 08:05:29;;;;;;;78.28;72.90;;;;;;;24.63;64.48;101263.62;1678769;85;27981;-59
2023/09/27 08:07:58;;;;;;;;;;;;;;;24.60;63.87;101265.98;1680949;85;25538;-59
2023/09/27 08:10:29;;;;;;;21.85;18.55;;;;;;;24.83;64.58;101262.80;1678526;85;25605;-59
2023/09/27 08:12:56;;;;;;;18.92;12.50;;;;;;;25.15;64.12;101261.05;1678496;85;26495;-57
2023/09/27 08:15:23;;;;;;;20.75;13.28;;;;;;;25.49;63.27;101266.41;1678592;85;25565;-57
2023/09/27 08:17:50;;;;;;;19.05;13.70;;;;;;;25.75;62.09;101260.39;1678423;85;29455;-58
2023/09/27 08:20:18;;;;;;;21.65;19.48;;;;;;;25.89;61.25;101259.64;1678381;85;25540;-58
2023/09/27 08:22:47;;;;;;;42.05;38.73;;;;;;;26.25;61.75;101259.76;1678550;85;25427;-56
2023/09/27 08:25:16;;;;;;;24.77;12.65;;;;;;;26.77;60.65;101263.60;1678463;85;25693;-58
2023/09/27 08:27:50;;;;;;;64.27;59.98;;;;;;;27.17;59.83;101262.33;1678553;85;25394;-57
2023/09/27 08:30:15;;;;;;;74.22;69.32;;;;;;;27.56;59.45;101263.45;1678001;85;27260;-56
2023/09/27 08:32:44;;;;;;;74.72;69.53;;;;;;;28.04;57.93;101260.06;1678498;85;25341;-55
2023/09/27 08:35:11;;;;;;;;;;;;;;;28.39;55.58;101262.44;1662340;85;25516;-57
2023/09/27 08:37:40;;;;;;;;;;;;;;;28.48;55.09;101260.58;1680968;85;25589;-58
2023/09/27 08:40:15;;;;;;;74.92;69.65;;;;;;;28.81;54.68;101261.11;1678479;85;25402;-57
2023/09/27 08:42:50;;;;;;;72.42;67.37;;;;;;;29.11;53.92;101263.83;1678532;85;27884;-56
2023/09/27 08:45:22;;;;;;;72.25;67.80;;;;;;;29.46;53.45;101267.44;1681268;83;25621;-57
2023/09/27 08:47:51;;;;;;;76.20;70.95;;;;;;;29.88;52.89;101263.95;1682432;85;25347;-57
2023/09/27 08:50:21;;;;;;;73.30;68.67;;;;;;;30.13;50.14;101262.22;1682378;85;26394;-58
2023/09/27 08:52:51;;;;;;;70.28;65.95;;;;;;;30.05;49.84;101262.12;1682411;85;25340;-58
2023/09/27 08:55:20;;;;;;;70.60;65.92;;;;;;;30.31;49.10;101258.55;1682408;85;27198;-58
2023/09/27 08:57:53;;;;;;;;;;;;;;;30.32;49.05;101257.94;1684792;85;27215;-57
2023/09/27 09:00:26;;;;;;;72.30;67.45;;;;;;;30.54;48.14;101260.59;1682393;85;25332;-57
2023/09/27 09:03:00;;;;;;;70.30;65.83;;;;;;;30.63;48.36;101257.87;1682326;85;26305;-57
2023/09/27 09:05:31;;;;;;;70.28;65.05;;;;;;;30.86;48.05;101251.49;1682400;85;25405;-54
2023/09/27 09:08:07;;;;;;;68.20;63.87;;;;;;;31.13;46.90;101249.24;1682372;85;27220;-55
2023/09/27 09:10:34;;;;;;;70.47;64.90;;;;;;;31.19;46.99;101248.29;1660353;85;25656;-56
2023/09/27 09:13:05;;;;;;;68.90;64.55;;;;;;;31.56;47.05;101251.20;1682498;85;25534;-55
2023/09/27 09:15:47;;;;;;;68.30;63.98;;;;;;;31.95;46.32;101247.53;1682350;85;25622;-56
2023/09/27 09:18:28;;;;;;;72.72;67.53;;;;;;;32.26;45.55;101248.64;1681771;84;25570;-59
2023/09/27 09:21:08;;;;;;;67.72;62.88;;;;;;;32.66;45.10;101240.09;1714826;83;27790;-58
2023/09/27 09:23:39;;;;;;;65.10;61.20;;;;;;;32.74;43.20;101237.28;1714717;83;25466;-56
2023/09/27 09:26:12;;;;;;;66.30;62.03;;;;;;;32.66;43.03;101241.48;1714760;83;25498;-57
2023/09/27 09:28:50;;;;;;;66.50;61.58;;;;;;;32.76;42.66;101241.82;1682384;85;25645;-57
2023/09/27 09:31:28;;;;;;;64.72;60.25;;;;;;;32.85;42.01;101241.19;1709669;83;25315;-57
2023/09/27 09:34:08;;;;;;;68.20;63.42;;;;;;;33.01;42.66;101239.57;1714383;82;28107;-57
2023/09/27 09:36:37;;;;;;;44.15;41.05;;;;;;;33.29;41.81;101243.00;1714767;83;25787;-57
2023/09/27 09:39:14;;;;;;;66.97;62.45;;;;;;;30.27;40.79;100789.09;1714790;83;25346;-57
2023/09/27 09:41:52;;;;;;;64.30;59.35;;;;;;;33.39;40.71;101247.34;1682541;85;25488;-57
2023/09/27 09:44:26;;;;;;;62.35;58.28;;;;;;;33.73;41.07;101242.56;1705468;83;25400;-58
2023/09/27 09:46:53;;;;;;;64.90;60.52;;;;;;;34.12;41.21;101239.74;1678252;85;29484;-58
2023/09/27 09:49:21;;;;;;;64.67;60.30;;;;;;;34.40;40.62;101242.27;1678218;85;25534;-58
2023/09/27 09:51:54;;;;;;;66.00;61.28;;;;;;;34.65;39.79;101242.03;1678351;85;25526;-58
2023/09/27 09:54:29;;;;;;;63.38;59.27;;;;;;;34.85;39.48;101234.13;1678312;85;26153;-59
2023/09/27 09:56:59;;;;;;;62.05;58.08;;;;;;;35.00;38.70;101233.63;1678206;85;25538;-57
2023/09/27 09:59:32;;;;;;;62.25;58.00;;;;;;;35.23;38.42;101234.61;1656742;85;27209;-59
2023/09/27 10:02:04;;;;;;;61.30;57.17;;;;;;;35.53;38.08;101239.30;1677648;84;25586;-59
2023/09/27 10:04:34;;;;;;;60.33;56.13;;;;;;;35.66;37.51;101244.22;1678437;85;25400;-59
2023/09/27 10:07:03;;;;;;;63.02;58.40;;;;;;;35.73;37.52;101241.00;1678311;85;25621;-57
2023/09/27 10:09:33;;;;;;;63.17;58.80;;;;;;;35.83;37.22;101249.02;1678316;85;25337;-55
2023/09/27 10:12:01;;;;;;;60.12;56.13;;;;;;;35.79;36.37;101243.36;1656914;85;27501;-54
2023/09/27 10:14:32;;;;;;;63.25;58.58;;;;;;;35.95;36.46;101238.13;1678293;85;25330;-54
2023/09/27 10:16:59;;;;;;;62.43;57.95;;;;;;;36.18;36.16;101235.36;1678286;85;25536;-53
2023/09/27 10:19:29;;;;;;;60.78;56.48;;;;;;;35.90;36.05;101156.48;1656489;85;26450;-52
2023/09/27 10:22:13;;;;;;;60.83;56.35;;;;;;;36.67;35.43;101237.98;1678422;85;25333;-53
2023/09/27 10:24:43;;;;;;;61.20;56.90;;;;;;;34.57;35.16;100862.36;1677659;85;27209;-54
2023/09/27 10:27:10;;;;;;;59.95;55.55;;;;;;;36.98;34.51;101182.25;1678293;85;26067;-57
2023/09/27 10:29:58;;;;;;;42.00;38.70;;;;;;;37.29;33.61;101236.27;1678279;85;25364;-57
2023/09/27 10:32:27;;;;;;;72.97;68.02;;;;;;;34.41;33.57;100788.97;1678233;85;25787;-56
2023/09/27 10:34:56;;;;;;;40.52;37.40;;;;;;;;;;1678354;85;25384;-55
2023/09/27 10:37:36;;;;;;;43.10;39.75;;;;;;;;;;1647796;87;27194;-57
2023/09/27 10:40:21;;;;;;;61.35;56.48;;;;;;;;;;1636178;87;25487;-57
2023/09/27 10:42:49;;;;;;;62.17;57.88;;;;;;;;;;1655140;86;25491;-54
2023/09/27 10:45:20;;;;;;;61.13;56.73;;;;;;;;;;1624471;86;25600;-53
2023/09/27 10:47:49;;;;;;;61.88;57.55;;;;;;;;;;1676105;85;25452;-55
2023/09/27 10:50:28;;;;;;;62.15;58.13;;;;;;;;;;1657237;85;27215;-56
2023/09/27 10:52:55;;;;;;;60.48;56.15;;;;;;;;;;1676071;85;25479;-55
2023/09/27 10:55:24;;;;;;;60.55;56.53;;;;;;;;;;1657332;85;25299;-55
2023/09/27 10:57:53;;;;;;;60.75;56.25;;;;;;;;;;1676179;85;25752;-54
2023/09/27 11:00:23;;;;;;;68.05;63.23;;;;;;;;;;1676143;85;25365;-54
2023/09/27 11:02:50;;;;;;;65.37;61.18;;;;;;;;;;1676104;85;27217;-54
2023/09/27 11:05:20;;;;;;;61.73;57.67;;;;;;;;;;1676025;85;25487;-52
2023/09/27 11:07:51;;;;;;;64.97;60.33;;;;;;;;;;1675133;85;25560;-53
2023/09/27 11:10:31;;;;;;;60.55;56.80;;;;;;;;;;1676169;85;25664;-53
2023/09/27 11:13:11;;;;;;;58.48;54.50;;;;;;;;;;1673760;85;25377;-57
2023/09/27 11:15:41;;;;;;;57.98;54.45;;;;;;;;;;1676142;85;27290;-53
2023/09/27 11:18:10;;;;;;;61.48;57.35;;;;;;;;;;1676075;85;25521;-51
2023/09/27 11:20:39;;;;;;;59.90;55.95;;;;;;;;;;1676170;85;25304;-51
2023/09/27 11:23:06;;;;;;;59.63;55.80;;;;;;;;;;1676061;85;25604;-52
2023/09/27 11:25:37;;;;;;;58.08;54.60;;;;;;;;;;1676093;85;25502;-52
2023/09/27 11:28:06;;;;;;;59.40;55.48;;;;;;;;;;1657237;86;27813;-51
2023/09/27 11:30:35;;;;;;;59.65;56.02;;;;;;;;;;1651343;85;25704;-54
2023/09/27 11:33:05;;;;;;;58.52;55.03;;;;;;;;;;1657190;86;25287;-53
2023/09/27 11:35:32;;;;;;;60.12;56.55;;;;;;;;;;1676046;85;25636;-50
2023/09/27 11:38:12;;;;;;;57.93;54.18;;;;;;;;;;1657235;85;25296;-53
2023/09/27 11:40:42;;;;;;;60.05;56.33;;;;;;;;;;1676089;85;27946;-52